PKWA TAF

84.7 °F / 29.3 °C
SSE at 13 MPH
80%
78.1°F / 25.6 °C
29.75" (1007 mb)
10 mile(s)
clear
2020.10.27 0540 UTC

PKWA TAF

2020/10/27 06:45
TAF PKWA 270542Z 2706/2806 08012KT P6SM VCSH FEW018 SCT040 SCT100